createdAt,value
2016-12-15T00:00:25.594Z,4.66
2016-12-15T00:01:24.907Z,4.71
2016-12-15T00:02:24.928Z,4.69
2016-12-15T00:03:24.878Z,4.66
2016-12-15T00:04:25.088Z,4.68
2016-12-15T00:05:24.852Z,4.69
2016-12-15T00:06:24.844Z,4.71
2016-12-15T00:07:24.831Z,4.61
2016-12-15T00:08:24.811Z,4.71
2016-12-15T00:09:24.800Z,4.69
2016-12-15T00:10:24.787Z,4.71
2016-12-15T00:11:24.804Z,4.66
2016-12-15T00:12:24.757Z,4.6
2016-12-15T00:13:25.060Z,4.58
2016-12-15T00:14:25.175Z,4.61
2016-12-15T00:15:24.719Z,4.6
2016-12-15T00:16:24.712Z,4.58
2016-12-15T00:17:24.692Z,4.48
2016-12-15T00:18:24.683Z,4.61
2016-12-15T00:19:24.670Z,4.61
2016-12-15T00:20:25.107Z,4.58
2016-12-15T00:21:24.638Z,4.6
2016-12-15T00:22:25.354Z,4.61
2016-12-15T00:23:24.612Z,4.61
2016-12-15T00:24:24.672Z,4.58
2016-12-15T00:25:24.598Z,4.6
2016-12-15T00:26:24.573Z,4.64
2016-12-15T00:27:24.559Z,4.61
2016-12-15T00:28:24.861Z,4.64
2016-12-15T00:29:24.534Z,4.61
2016-12-15T00:30:24.738Z,4.6
2016-12-15T00:31:24.509Z,4.58
2016-12-15T00:32:24.496Z,4.58
2016-12-15T00:33:25.127Z,4.58
2016-12-15T00:34:24.467Z,4.46
2016-12-15T00:35:24.450Z,4.57
2016-12-15T00:36:24.840Z,4.61
2016-12-15T00:37:24.425Z,4.64
2016-12-15T00:38:24.416Z,4.51
2016-12-15T00:39:24.681Z,4.51
2016-12-15T00:40:24.561Z,4.56
2016-12-15T00:41:24.372Z,4.51
2016-12-15T00:42:24.359Z,4.51
2016-12-15T00:43:24.347Z,4.54
2016-12-15T00:44:24.921Z,4.46
2016-12-15T00:45:24.319Z,4.53
2016-12-15T00:46:24.306Z,4.51
2016-12-15T00:47:24.316Z,4.42
2016-12-15T00:48:24.281Z,4.58
2016-12-15T00:49:24.264Z,4.46
2016-12-15T00:50:24.389Z,4.5
2016-12-15T00:51:24.240Z,4.46
2016-12-15T00:52:25.020Z,4.48
2016-12-15T00:53:24.214Z,4.47
2016-12-15T00:54:24.204Z,4.57
2016-12-15T00:55:24.187Z,4.5
2016-12-15T00:56:24.710Z,4.53
2016-12-15T00:57:24.161Z,4.51
2016-12-15T00:58:24.144Z,4.57
2016-12-15T00:59:24.692Z,4.48
2016-12-15T01:00:24.159Z,4.5
2016-12-15T01:01:24.107Z,4.46
2016-12-15T01:02:24.420Z,4.57
2016-12-15T01:03:24.081Z,4.51
2016-12-15T01:04:24.075Z,4.54
2016-12-15T01:05:24.574Z,4.48
2016-12-15T01:06:24.037Z,4.51
2016-12-15T01:07:24.024Z,4.5
2016-12-15T01:08:25.056Z,4.48
2016-12-15T01:09:23.996Z,4.47
2016-12-15T01:10:24.704Z,4.53
2016-12-15T01:11:23.973Z,4.51
2016-12-15T01:12:23.955Z,4.53
2016-12-15T01:13:24.661Z,4.53
2016-12-15T01:14:23.931Z,4.53
2016-12-15T01:15:23.917Z,4.47
2016-12-15T01:16:23.902Z,4.47
2016-12-15T01:17:23.888Z,4.44
2016-12-15T01:18:23.881Z,4.57
2016-12-15T01:19:23.862Z,4.48
2016-12-15T01:20:23.851Z,4.47
2016-12-15T01:21:23.833Z,4.5
2016-12-15T01:22:23.823Z,4.58
2016-12-15T01:23:23.809Z,4.53
2016-12-15T01:24:23.794Z,4.51
2016-12-15T01:25:23.814Z,4.46
2016-12-15T01:26:23.767Z,4.46
2016-12-15T01:27:23.757Z,4.5
2016-12-15T01:28:24.075Z,4.5
2016-12-15T01:29:23.728Z,4.53
2016-12-15T01:30:23.716Z,4.53
2016-12-15T01:31:23.702Z,4.51
2016-12-15T01:32:23.689Z,4.48
2016-12-15T01:33:23.702Z,4.6
2016-12-15T01:34:23.660Z,4.56
2016-12-15T01:35:23.685Z,4.5
2016-12-15T01:36:23.644Z,4.47
2016-12-15T01:37:23.621Z,4.5
2016-12-15T01:38:23.608Z,4.56
2016-12-15T01:39:23.597Z,4.56
2016-12-15T01:40:23.581Z,4.47
2016-12-15T01:41:23.596Z,4.51
2016-12-15T01:42:23.556Z,4.51
2016-12-15T01:43:23.543Z,4.47
2016-12-15T01:44:23.545Z,4.51
2016-12-15T01:45:23.516Z,4.51
2016-12-15T01:46:23.501Z,4.54
2016-12-15T01:47:23.491Z,4.48
2016-12-15T01:48:23.468Z,4.51
2016-12-15T01:49:23.458Z,4.54
2016-12-15T01:50:23.762Z,4.48
2016-12-15T01:51:23.432Z,4.42
2016-12-15T01:52:23.739Z,4.36
2016-12-15T01:53:23.403Z,4.35
2016-12-15T01:54:23.391Z,4.28
2016-12-15T01:55:23.404Z,4.32
2016-12-15T01:56:23.363Z,4.3
2016-12-15T01:57:23.352Z,4.29
2016-12-15T01:58:23.338Z,4.29
2016-12-15T01:59:23.326Z,4.22
2016-12-15T02:00:23.314Z,4.17
2016-12-15T02:01:23.296Z,4.28
2016-12-15T02:02:23.598Z,4.24
2016-12-15T02:03:23.274Z,4.2
2016-12-15T02:04:23.258Z,4.29
2016-12-15T02:05:23.556Z,4.22
2016-12-15T02:06:23.230Z,4.29
2016-12-15T02:07:23.218Z,4.21
2016-12-15T02:08:23.204Z,4.12
2016-12-15T02:09:23.504Z,4.17
2016-12-15T02:10:23.179Z,4.14
2016-12-15T02:11:23.167Z,4.14
2016-12-15T02:12:23.150Z,4.15
2016-12-15T02:13:23.136Z,4.2
2016-12-15T02:14:23.125Z,4.12
2016-12-15T02:15:23.109Z,4.14
2016-12-15T02:16:23.096Z,4.2
2016-12-15T02:17:23.089Z,4.15
2016-12-15T02:18:23.067Z,4.17
2016-12-15T02:19:23.060Z,4.12
2016-12-15T02:20:23.042Z,4.22
2016-12-15T02:21:23.028Z,4.12
2016-12-15T02:22:23.013Z,4.12
2016-12-15T02:23:23.000Z,4.11
2016-12-15T02:24:23.016Z,4.12
2016-12-15T02:25:22.977Z,4.14
2016-12-15T02:26:22.967Z,4.12
2016-12-15T02:27:22.945Z,4.08
2016-12-15T02:28:22.940Z,4.11
2016-12-15T02:29:22.922Z,4.12
2016-12-15T02:30:22.905Z,4.1
2016-12-15T02:31:22.899Z,3.97
2016-12-15T02:32:22.880Z,4.03
2016-12-15T02:33:22.863Z,3.99
2016-12-15T02:34:22.852Z,3.93
2016-12-15T02:35:22.837Z,3.96
2016-12-15T02:36:22.827Z,3.96
2016-12-15T02:37:22.810Z,3.81
2016-12-15T02:38:22.797Z,3.85
2016-12-15T02:39:22.787Z,3.76
2016-12-15T02:40:22.768Z,3.74
2016-12-15T02:41:22.755Z,3.66
2016-12-15T02:42:22.743Z,3.57
2016-12-15T02:43:22.731Z,3.43
2016-12-15T02:44:22.712Z,3.46
2016-12-15T02:45:22.717Z,3.48
2016-12-15T02:46:22.685Z,3.32
2016-12-15T02:47:22.675Z,3.24
2016-12-15T02:48:22.657Z,3.19
2016-12-15T02:49:22.700Z,3.16
2016-12-15T02:50:22.653Z,3.14
2016-12-15T02:51:22.618Z,3.11
2016-12-15T02:52:22.599Z,3.08
2016-12-15T02:53:22.589Z,2.99
2016-12-15T02:54:22.577Z,3.05
2016-12-15T02:55:22.562Z,3.11
2016-12-15T02:56:22.546Z,3.06
2016-12-15T02:57:22.532Z,3.06
2016-12-15T02:58:22.518Z,3.05
2016-12-15T02:59:22.506Z,3.03
2016-12-15T03:00:22.810Z,3.06
2016-12-15T03:01:22.478Z,3.08
2016-12-15T03:02:22.460Z,3.19
2016-12-15T03:03:22.448Z,3.13
2016-12-15T03:04:22.433Z,3.06
2016-12-15T03:05:22.422Z,3.09
2016-12-15T03:06:22.401Z,3.05
2016-12-15T03:07:22.393Z,3.05
2016-12-15T03:08:22.377Z,3.06
2016-12-15T03:09:22.363Z,2.9
2016-12-15T03:10:22.350Z,3.05
2016-12-15T03:11:22.334Z,2.99
2016-12-15T03:12:22.320Z,2.87
2016-12-15T03:13:22.305Z,3.03
2016-12-15T03:14:22.290Z,2.98
2016-12-15T03:15:22.273Z,3.01
2016-12-15T03:16:22.264Z,3.01
2016-12-15T03:17:22.254Z,2.96
2016-12-15T03:18:22.237Z,3.05
2016-12-15T03:19:22.220Z,2.93
2016-12-15T03:20:22.207Z,2.98
2016-12-15T03:21:22.191Z,2.9
2016-12-15T03:22:22.175Z,3.02
2016-12-15T03:23:22.161Z,3.05
2016-12-15T03:24:22.143Z,3.01
2016-12-15T03:25:22.130Z,2.95
2016-12-15T03:26:22.114Z,2.85
2016-12-15T03:27:22.103Z,2.83
2016-12-15T03:28:22.086Z,2.87
2016-12-15T03:29:22.075Z,2.87
2016-12-15T03:30:22.058Z,2.85
2016-12-15T03:31:22.046Z,2.85
2016-12-15T03:32:22.030Z,2.81
2016-12-15T03:33:22.018Z,2.81
2016-12-15T03:34:22.007Z,2.81
2016-12-15T03:35:21.985Z,2.83
2016-12-15T03:36:21.979Z,2.81
2016-12-15T03:37:21.960Z,2.84
2016-12-15T03:38:21.949Z,2.81
2016-12-15T03:39:21.927Z,2.81
2016-12-15T03:40:21.913Z,2.87
2016-12-15T03:41:21.899Z,2.85
2016-12-15T03:42:21.888Z,2.87
2016-12-15T03:43:21.870Z,2.8
2016-12-15T03:44:21.857Z,2.81
2016-12-15T03:45:21.841Z,2.73
2016-12-15T03:46:21.830Z,2.72
2016-12-15T03:47:21.813Z,2.77
2016-12-15T03:48:21.800Z,2.67
2016-12-15T03:49:21.779Z,2.58
2016-12-15T03:50:21.771Z,2.59
2016-12-15T03:51:21.750Z,2.45
2016-12-15T03:52:21.738Z,2.41
2016-12-15T03:53:21.722Z,2.34
2016-12-15T03:54:21.710Z,2.27
2016-12-15T03:55:21.692Z,2.33
2016-12-15T03:56:21.680Z,2.29
2016-12-15T03:57:21.667Z,2.2
2016-12-15T03:58:21.648Z,2.15
2016-12-15T03:59:21.633Z,2.18
2016-12-15T04:00:21.937Z,2.06
2016-12-15T04:01:21.606Z,1.93
2016-12-15T04:02:21.591Z,1.82
2016-12-15T04:03:21.572Z,1.71
2016-12-15T04:04:21.561Z,1.58
2016-12-15T04:05:21.549Z,1.56
2016-12-15T04:06:21.533Z,1.48
2016-12-15T04:07:21.518Z,1.38
2016-12-15T04:08:21.498Z,1.28
2016-12-15T04:09:21.486Z,1.22
2016-12-15T04:10:21.472Z,1.21
2016-12-15T04:11:21.483Z,1.14
2016-12-15T04:12:21.440Z,1.14
2016-12-15T04:13:21.422Z,1.07
2016-12-15T04:14:21.411Z,0.99
2016-12-15T04:15:21.389Z,0.89
2016-12-15T04:16:21.380Z,0.79
2016-12-15T04:17:21.361Z,0.79
2016-12-15T04:18:21.348Z,0.79
2016-12-15T04:19:21.336Z,0.67
2016-12-15T04:20:21.317Z,0.63
2016-12-15T04:21:21.300Z,0.64
2016-12-15T04:22:21.287Z,0.6
2016-12-15T04:23:21.268Z,0.52
2016-12-15T04:24:21.258Z,0.57
2016-12-15T04:25:21.241Z,0.48
2016-12-15T04:26:21.223Z,0.48
2016-12-15T04:27:21.209Z,0.41
2016-12-15T04:28:21.192Z,0.39
2016-12-15T04:29:21.175Z,0.39
2016-12-15T04:30:21.161Z,0.26
2016-12-15T04:31:21.145Z,0.28
2016-12-15T04:32:21.135Z,0.21
2016-12-15T04:33:21.112Z,0.16
2016-12-15T04:34:21.098Z,0.26
2016-12-15T04:35:21.086Z,0.14
2016-12-15T04:36:21.075Z,0.13
2016-12-15T04:37:21.051Z,0.16
2016-12-15T04:38:21.062Z,0.14
2016-12-15T04:39:21.022Z,0.1
2016-12-15T04:40:21.001Z,0.06
2016-12-15T04:41:20.986Z,0.09
2016-12-15T04:42:20.968Z,0.01
2016-12-15T04:43:20.957Z,-0.04
2016-12-15T04:44:20.936Z,-0.02
2016-12-15T04:45:20.925Z,-0.09
2016-12-15T04:46:20.905Z,-0.05
2016-12-15T04:47:20.886Z,-0.15
2016-12-15T04:48:20.869Z,-0.05
2016-12-15T04:49:20.857Z,-0.07
2016-12-15T04:50:20.840Z,0.02
2016-12-15T04:51:20.827Z,0.02
2016-12-15T04:52:20.808Z,0.02
2016-12-15T04:53:20.791Z,-0.01
2016-12-15T04:54:20.773Z,0.01
2016-12-15T04:55:20.755Z,-0.05
2016-12-15T04:56:20.746Z,-0.13
2016-12-15T04:57:20.725Z,-0.2
2016-12-15T04:58:20.710Z,-0.05
2016-12-15T04:59:20.692Z,-0.13
2016-12-15T05:00:20.676Z,-0.2
2016-12-15T05:01:20.658Z,-0.19
2016-12-15T05:02:20.641Z,-0.25
2016-12-15T05:03:20.628Z,-0.33
2016-12-15T05:04:20.611Z,-0.28
2016-12-15T05:05:20.628Z,-0.33
2016-12-15T05:06:20.575Z,-0.38
2016-12-15T05:07:20.570Z,-0.37
2016-12-15T05:08:20.547Z,-0.36
2016-12-15T05:09:20.529Z,-0.45
2016-12-15T05:10:20.511Z,-0.37
2016-12-15T05:11:20.496Z,-0.4
2016-12-15T05:12:20.480Z,-0.45
2016-12-15T05:13:20.461Z,-0.45
2016-12-15T05:14:20.444Z,-0.41
2016-12-15T05:15:20.429Z,-0.52
2016-12-15T05:16:20.419Z,-0.51
2016-12-15T05:17:20.395Z,-0.48
2016-12-15T05:18:20.377Z,-0.49
2016-12-15T05:19:20.362Z,-0.49
2016-12-15T05:20:20.348Z,-0.46
2016-12-15T05:21:20.330Z,-0.49
2016-12-15T05:22:20.314Z,-0.51
2016-12-15T05:23:20.300Z,-0.59
2016-12-15T05:24:20.285Z,-0.59
2016-12-15T05:25:20.262Z,-0.59
2016-12-15T05:26:20.244Z,-0.54
2016-12-15T05:27:20.230Z,-0.62
2016-12-15T05:28:20.210Z,-0.59
2016-12-15T05:29:20.194Z,-0.52
2016-12-15T05:30:20.179Z,-0.4
2016-12-15T05:31:20.165Z,-0.54
2016-12-15T05:32:20.146Z,-0.4
2016-12-15T05:33:20.135Z,-0.36
2016-12-15T05:34:20.113Z,-0.3
2016-12-15T05:35:20.099Z,-0.3
2016-12-15T05:36:20.075Z,-0.34
2016-12-15T05:37:20.064Z,-0.36
2016-12-15T05:38:20.046Z,-0.38
2016-12-15T05:39:20.025Z,-0.33
2016-12-15T05:40:20.011Z,-0.25
2016-12-15T05:41:19.997Z,-0.33
2016-12-15T05:42:19.978Z,-0.27
2016-12-15T05:43:19.962Z,-0.3
2016-12-15T05:44:19.944Z,-0.28
2016-12-15T05:45:19.931Z,-0.3
2016-12-15T05:46:19.916Z,-0.3
2016-12-15T05:47:19.902Z,-0.34
2016-12-15T05:48:19.878Z,-0.22
2016-12-15T05:49:19.863Z,-0.3
2016-12-15T05:50:19.844Z,-0.33
2016-12-15T05:51:19.834Z,-0.23
2016-12-15T05:52:19.814Z,-0.2
2016-12-15T05:53:19.794Z,-0.27
2016-12-15T05:54:19.777Z,-0.22
2016-12-15T05:55:19.762Z,-0.27
2016-12-15T05:56:19.743Z,-0.3
2016-12-15T05:57:19.726Z,-0.28
2016-12-15T05:58:19.714Z,-0.38
2016-12-15T05:59:19.693Z,-0.41
2016-12-15T06:00:19.678Z,-0.43
2016-12-15T06:01:19.664Z,-0.52
2016-12-15T06:02:19.645Z,-0.55
2016-12-15T06:03:19.626Z,-0.55
2016-12-15T06:04:19.610Z,-0.52
2016-12-15T06:05:19.594Z,-0.66
2016-12-15T06:06:19.576Z,-0.7
2016-12-15T06:07:19.562Z,-0.66
2016-12-15T06:08:19.591Z,-0.66
2016-12-15T06:09:19.538Z,-0.69
2016-12-15T06:10:19.507Z,-0.74
2016-12-15T06:11:19.496Z,-0.72
2016-12-15T06:12:19.480Z,-0.66
2016-12-15T06:13:19.471Z,-0.79
2016-12-15T06:14:19.441Z,-0.69
2016-12-15T06:15:19.423Z,-0.77
2016-12-15T06:16:19.407Z,-0.76
2016-12-15T06:17:19.392Z,-0.67
2016-12-15T06:18:19.377Z,-0.62
2016-12-15T06:19:19.356Z,-0.66
2016-12-15T06:20:19.342Z,-0.69
2016-12-15T06:21:19.323Z,-0.66
2016-12-15T06:22:19.306Z,-0.69
2016-12-15T06:23:19.291Z,-0.67
2016-12-15T06:24:19.272Z,-0.69
2016-12-15T06:25:19.257Z,-0.73
2016-12-15T06:26:19.240Z,-0.55
2016-12-15T06:27:19.245Z,-0.67
2016-12-15T06:28:19.203Z,-0.56
2016-12-15T06:29:19.191Z,-0.7
2016-12-15T06:30:19.172Z,-0.61
2016-12-15T06:31:19.167Z,-0.67
2016-12-15T06:32:19.137Z,-0.61
2016-12-15T06:33:19.118Z,-0.62
2016-12-15T06:34:19.100Z,-0.58
2016-12-15T06:35:19.087Z,-0.72
2016-12-15T06:36:19.068Z,-0.64
2016-12-15T06:37:19.051Z,-0.64
2016-12-15T06:38:19.038Z,-0.67
2016-12-15T06:39:19.019Z,-0.64
2016-12-15T06:40:19.004Z,-0.69
2016-12-15T06:41:18.982Z,-0.67
2016-12-15T06:42:18.965Z,-0.82
2016-12-15T06:43:18.951Z,-0.82
2016-12-15T06:44:18.932Z,-0.79
2016-12-15T06:45:18.915Z,-0.84
2016-12-15T06:46:18.898Z,-0.85
2016-12-15T06:47:18.880Z,-0.89
2016-12-15T06:48:18.865Z,-0.96
2016-12-15T06:49:18.845Z,-0.98
2016-12-15T06:50:18.829Z,-0.95
2016-12-15T06:51:18.850Z,-0.93
2016-12-15T06:52:18.817Z,-0.93
2016-12-15T06:53:18.779Z,-0.96
2016-12-15T06:54:18.763Z,-0.98
2016-12-15T06:55:18.744Z,-1.01
2016-12-15T06:56:18.726Z,-1.03
2016-12-15T06:57:18.709Z,-0.98
2016-12-15T06:58:18.694Z,-1.01
2016-12-15T06:59:18.681Z,-0.95
2016-12-15T07:00:18.659Z,-1.04
2016-12-15T07:01:18.639Z,-0.99
2016-12-15T07:02:18.625Z,-1.07
2016-12-15T07:03:18.603Z,-1.09
2016-12-15T07:04:18.590Z,-1.09
2016-12-15T07:05:18.572Z,-1.11
2016-12-15T07:06:18.556Z,-1.13
2016-12-15T07:07:18.548Z,-1.1
2016-12-15T07:08:18.525Z,-1.14
2016-12-15T07:09:18.507Z,-1.11
2016-12-15T07:10:18.487Z,-1.1
2016-12-15T07:11:18.470Z,-1.22
2016-12-15T07:12:18.453Z,-1.25
2016-12-15T07:13:18.750Z,-1.09
2016-12-15T07:14:18.414Z,-1.25
2016-12-15T07:15:18.399Z,-1.24
2016-12-15T07:16:18.381Z,-1.22
2016-12-15T07:17:18.366Z,-1.19
2016-12-15T07:18:18.349Z,-1.21
2016-12-15T07:19:18.330Z,-1.22
2016-12-15T07:20:18.317Z,-1.19
2016-12-15T07:21:18.298Z,-1.21
2016-12-15T07:22:18.277Z,-1.24
2016-12-15T07:23:18.264Z,-1.27
2016-12-15T07:24:18.248Z,-1.17
2016-12-15T07:25:18.229Z,-1.25
2016-12-15T07:26:18.210Z,-1.31
2016-12-15T07:27:18.193Z,-1.24
2016-12-15T07:28:18.497Z,-1.27
2016-12-15T07:29:18.160Z,-1.3
2016-12-15T07:30:18.143Z,-1.22
2016-12-15T07:31:18.125Z,-1.27
2016-12-15T07:32:18.107Z,-1.25
2016-12-15T07:33:18.095Z,-1.27
2016-12-15T07:34:18.078Z,-1.28
2016-12-15T07:35:18.060Z,-1.28
2016-12-15T07:36:18.039Z,-1.25
2016-12-15T07:37:18.024Z,-1.28
2016-12-15T07:38:18.010Z,-1.3
2016-12-15T07:39:17.988Z,-1.22
2016-12-15T07:40:17.970Z,-1.22
2016-12-15T07:41:17.955Z,-1.16
2016-12-15T07:42:17.936Z,-1.09
2016-12-15T07:43:17.919Z,-1.21
2016-12-15T07:44:17.903Z,-1.24
2016-12-15T07:45:17.886Z,-1.11
2016-12-15T07:46:17.871Z,-1.16
2016-12-15T07:47:17.852Z,-1.14
2016-12-15T07:48:17.839Z,-1.09
2016-12-15T07:49:17.820Z,-1.14
2016-12-15T07:50:17.800Z,-1.07
2016-12-15T07:51:17.784Z,-1.06
2016-12-15T07:52:17.767Z,-0.98
2016-12-15T07:53:17.746Z,-1.06
2016-12-15T07:54:17.736Z,-1.04
2016-12-15T07:55:17.716Z,-1.03
2016-12-15T07:56:17.703Z,-1.04
2016-12-15T07:57:17.683Z,-1.1
2016-12-15T07:58:17.662Z,-1.13
2016-12-15T07:59:17.646Z,-1.13
2016-12-15T08:00:17.630Z,-1.09
2016-12-15T08:01:17.617Z,-1.17
2016-12-15T08:02:17.597Z,-1.14
2016-12-15T08:03:17.582Z,-1.13
2016-12-15T08:04:17.563Z,-1.1
2016-12-15T08:05:17.544Z,-1.06
2016-12-15T08:06:17.546Z,-0.99
2016-12-15T08:07:17.508Z,-0.98
2016-12-15T08:08:17.490Z,-0.98
2016-12-15T08:09:17.478Z,-1.01
2016-12-15T08:10:17.465Z,-0.8
2016-12-15T08:11:17.441Z,-0.85
2016-12-15T08:12:17.426Z,-0.82
2016-12-15T08:13:17.411Z,-0.77
2016-12-15T08:14:17.389Z,-0.8
2016-12-15T08:15:17.373Z,-0.79
2016-12-15T08:16:17.353Z,-0.64
2016-12-15T08:17:17.337Z,-0.7
2016-12-15T08:18:17.323Z,-0.67
2016-12-15T08:19:17.305Z,-0.66
2016-12-15T08:20:17.287Z,-0.69
2016-12-15T08:21:17.272Z,-0.67
2016-12-15T08:22:17.256Z,-0.73
2016-12-15T08:23:17.235Z,-0.74
2016-12-15T08:24:17.222Z,-0.73
2016-12-15T08:25:17.199Z,-0.72
2016-12-15T08:26:17.183Z,-0.67
2016-12-15T08:27:17.172Z,-0.67
2016-12-15T08:28:17.149Z,-0.8
2016-12-15T08:29:17.134Z,-0.85
2016-12-15T08:30:17.114Z,-0.8
2016-12-15T08:31:17.100Z,-0.84
2016-12-15T08:32:17.080Z,-0.79
2016-12-15T08:33:17.070Z,-0.85
2016-12-15T08:34:17.046Z,-0.79
2016-12-15T08:35:17.032Z,-0.82
2016-12-15T08:36:17.013Z,-0.76
2016-12-15T08:37:16.999Z,-0.79
2016-12-15T08:38:16.980Z,-0.74
2016-12-15T08:39:16.963Z,-0.69
2016-12-15T08:40:16.946Z,-0.73
2016-12-15T08:41:16.931Z,-0.66
2016-12-15T08:42:16.916Z,-0.66
2016-12-15T08:43:16.893Z,-0.69
2016-12-15T08:44:16.879Z,-0.69
2016-12-15T08:45:16.865Z,-0.69
2016-12-15T08:46:17.166Z,-0.72
2016-12-15T08:47:16.827Z,-0.58
2016-12-15T08:48:16.813Z,-0.61
2016-12-15T08:49:16.792Z,-0.58
2016-12-15T08:50:16.776Z,-0.43
2016-12-15T08:51:16.761Z,-0.43
2016-12-15T08:52:16.746Z,-0.52
2016-12-15T08:53:16.725Z,-0.4
2016-12-15T08:54:16.709Z,-0.41
2016-12-15T08:55:16.690Z,-0.38
2016-12-15T08:56:16.676Z,-0.37
2016-12-15T08:57:16.663Z,-0.37
2016-12-15T08:58:16.642Z,-0.33
2016-12-15T08:59:16.627Z,-0.3
2016-12-15T09:00:16.606Z,-0.23
2016-12-15T09:01:16.598Z,-0.18
2016-12-15T09:02:16.579Z,-0.28
2016-12-15T09:03:16.558Z,-0.28
2016-12-15T09:04:16.539Z,-0.28
2016-12-15T09:05:16.528Z,-0.15
2016-12-15T09:06:16.507Z,-0.18
2016-12-15T09:07:16.490Z,-0.13
2016-12-15T09:08:16.477Z,-0.18
2016-12-15T09:09:16.457Z,-0.15
2016-12-15T09:10:16.442Z,-0.1
2016-12-15T09:11:16.423Z,-0.16
2016-12-15T09:12:16.407Z,-0.1
2016-12-15T09:13:16.390Z,-0.1
2016-12-15T09:14:16.377Z,-0.09
2016-12-15T09:15:16.357Z,-0.09
2016-12-15T09:16:16.341Z,-0.09
2016-12-15T09:17:16.326Z,-0.02
2016-12-15T09:18:16.314Z,-0.04
2016-12-15T09:19:16.293Z,0.05
2016-12-15T09:20:16.279Z,0.05
2016-12-15T09:21:16.258Z,0.06
2016-12-15T09:22:16.238Z,-0.02
2016-12-15T09:23:16.236Z,0.17
2016-12-15T09:24:16.208Z,0.09
2016-12-15T09:25:16.195Z,0.2
2016-12-15T09:26:16.177Z,0.19
2016-12-15T09:27:16.156Z,0.26
2016-12-15T09:28:16.142Z,0.32
2016-12-15T09:29:16.125Z,0.26
2016-12-15T09:30:16.110Z,0.23
2016-12-15T09:31:16.090Z,0.26
2016-12-15T09:32:16.076Z,0.31
2016-12-15T09:33:16.061Z,0.44
2016-12-15T09:34:16.355Z,0.44
2016-12-15T09:35:16.031Z,0.34
2016-12-15T09:36:16.009Z,0.37
2016-12-15T09:37:15.992Z,0.42
2016-12-15T09:38:15.979Z,0.42
2016-12-15T09:39:15.959Z,0.48
2016-12-15T09:40:15.942Z,0.44
2016-12-15T09:41:15.924Z,0.39
2016-12-15T09:42:15.909Z,0.41
2016-12-15T09:43:15.898Z,0.37
2016-12-15T09:44:15.878Z,0.48
2016-12-15T09:45:15.863Z,0.53
2016-12-15T09:46:15.843Z,0.48
2016-12-15T09:47:15.834Z,0.56
2016-12-15T09:48:15.812Z,0.52
2016-12-15T09:49:15.796Z,0.64
2016-12-15T09:50:15.782Z,0.66
2016-12-15T09:51:15.766Z,0.71
2016-12-15T09:52:15.755Z,0.64
2016-12-15T09:53:15.734Z,0.64
2016-12-15T09:54:15.722Z,0.81
2016-12-15T09:55:15.700Z,0.74
2016-12-15T09:56:15.682Z,0.76
2016-12-15T09:57:15.669Z,0.74
2016-12-15T09:58:15.651Z,0.75
2016-12-15T09:59:15.639Z,0.84
2016-12-15T10:00:15.622Z,0.92
2016-12-15T10:01:15.604Z,0.85
2016-12-15T10:02:15.587Z,0.85
2016-12-15T10:03:15.567Z,0.94
2016-12-15T10:04:15.873Z,0.94
2016-12-15T10:05:15.535Z,0.94
2016-12-15T10:06:15.521Z,1.1
2016-12-15T10:07:15.504Z,1.07
2016-12-15T10:08:15.495Z,1.12
2016-12-15T10:09:15.475Z,1.14
2016-12-15T10:10:15.459Z,1.07
2016-12-15T10:11:15.445Z,1.17
2016-12-15T10:12:15.423Z,1.26
2016-12-15T10:13:15.415Z,1.36
2016-12-15T10:14:15.395Z,1.47
2016-12-15T10:15:15.382Z,1.56
2016-12-15T10:16:15.421Z,1.42
2016-12-15T10:17:15.377Z,1.47
2016-12-15T10:18:15.326Z,1.56
2016-12-15T10:19:15.312Z,1.54
2016-12-15T10:20:15.298Z,1.6
2016-12-15T10:21:15.600Z,1.51
2016-12-15T10:22:15.266Z,1.56
2016-12-15T10:23:15.250Z,1.57
2016-12-15T10:24:15.236Z,1.6
2016-12-15T10:25:15.217Z,1.58
2016-12-15T10:26:15.211Z,1.61
2016-12-15T10:27:15.185Z,1.69
2016-12-15T10:28:15.489Z,1.74
2016-12-15T10:29:15.153Z,1.75
2016-12-15T10:30:15.142Z,1.75
2016-12-15T10:31:15.128Z,1.83
2016-12-15T10:32:15.108Z,1.82
2016-12-15T10:33:15.094Z,1.84
2016-12-15T10:34:15.080Z,1.9
2016-12-15T10:35:15.064Z,1.84
2016-12-15T10:36:15.045Z,1.93
2016-12-15T10:37:15.031Z,1.97
2016-12-15T10:38:15.013Z,1.93
2016-12-15T10:39:15.000Z,1.98
2016-12-15T10:40:14.986Z,2.02
2016-12-15T10:41:14.970Z,1.89
2016-12-15T10:42:14.957Z,2.01
2016-12-15T10:43:14.938Z,1.94
2016-12-15T10:44:14.924Z,1.84
2016-12-15T10:45:14.920Z,1.84
2016-12-15T10:46:14.887Z,1.84
2016-12-15T10:47:14.879Z,1.76
2016-12-15T10:48:14.861Z,1.69
2016-12-15T10:49:14.849Z,1.75
2016-12-15T10:50:15.158Z,1.87
2016-12-15T10:51:14.812Z,1.89
2016-12-15T10:52:14.799Z,1.82
2016-12-15T10:53:14.783Z,1.9
2016-12-15T10:54:14.768Z,1.9
2016-12-15T10:55:14.770Z,2.02
2016-12-15T10:56:14.739Z,1.89
2016-12-15T10:57:14.722Z,2.08
2016-12-15T10:58:14.713Z,2.12
2016-12-15T10:59:14.688Z,2.33
2016-12-15T11:00:14.697Z,2.44
2016-12-15T11:01:14.661Z,2.48
2016-12-15T11:02:14.642Z,2.54
2016-12-15T11:03:14.647Z,2.6
2016-12-15T11:04:14.614Z,2.55
2016-12-15T11:05:14.597Z,2.51
2016-12-15T11:06:14.580Z,2.51
2016-12-15T11:07:14.571Z,2.45
2016-12-15T11:08:14.550Z,2.49
2016-12-15T11:09:14.548Z,2.51
2016-12-15T11:10:14.527Z,2.45
2016-12-15T11:11:14.506Z,2.38
2016-12-15T11:12:14.492Z,2.47
2016-12-15T11:13:14.477Z,2.34
2016-12-15T11:14:14.463Z,2.33
2016-12-15T11:15:14.444Z,2.29
2016-12-15T11:16:14.428Z,2.31
2016-12-15T11:17:14.427Z,2.3
2016-12-15T11:18:14.402Z,2.33
2016-12-15T11:19:14.384Z,2.48
2016-12-15T11:20:14.369Z,2.51
2016-12-15T11:21:14.355Z,2.59
2016-12-15T11:22:14.338Z,2.33
2016-12-15T11:23:14.325Z,2.51
2016-12-15T11:24:14.313Z,2.41
2016-12-15T11:25:14.294Z,2.42
2016-12-15T11:26:14.283Z,2.51
2016-12-15T11:27:14.610Z,2.48
2016-12-15T11:28:14.578Z,2.49
2016-12-15T11:29:14.237Z,2.6
2016-12-15T11:30:14.219Z,2.55
2016-12-15T11:31:14.209Z,2.58
2016-12-15T11:32:14.205Z,2.48
2016-12-15T11:33:14.175Z,2.54
2016-12-15T11:34:14.160Z,2.54
2016-12-15T11:35:14.151Z,2.59
2016-12-15T11:36:14.132Z,2.58
2016-12-15T11:37:14.116Z,2.58
2016-12-15T11:38:14.102Z,2.58
2016-12-15T11:39:14.089Z,2.6
2016-12-15T11:40:14.071Z,2.55
2016-12-15T11:41:14.060Z,2.69
2016-12-15T11:42:14.588Z,2.55
2016-12-15T11:43:14.030Z,2.58
2016-12-15T11:44:14.012Z,2.55
2016-12-15T11:45:14.318Z,2.66
2016-12-15T11:46:13.986Z,2.65
2016-12-15T11:47:13.971Z,2.66
2016-12-15T11:48:13.957Z,2.7
2016-12-15T11:49:13.935Z,2.65
2016-12-15T11:50:13.931Z,2.72
2016-12-15T11:51:13.909Z,2.78
2016-12-15T11:52:13.895Z,2.73
2016-12-15T11:53:13.877Z,2.73
2016-12-15T11:54:13.867Z,2.77
2016-12-15T11:55:13.852Z,2.67
2016-12-15T11:56:13.836Z,2.73
2016-12-15T11:57:14.141Z,2.6
2016-12-15T11:58:13.809Z,2.67
2016-12-15T11:59:13.791Z,2.59
2016-12-15T12:00:13.774Z,2.59
2016-12-15T12:01:13.759Z,2.54
2016-12-15T12:02:13.748Z,2.59
2016-12-15T12:03:13.726Z,2.58
2016-12-15T12:04:13.717Z,2.52
2016-12-15T12:05:13.703Z,2.55
2016-12-15T12:06:13.702Z,2.4
2016-12-15T12:07:13.670Z,2.38
2016-12-15T12:08:13.654Z,2.34
2016-12-15T12:09:13.640Z,2.38
2016-12-15T12:10:13.624Z,2.36
2016-12-15T12:11:13.608Z,2.31
2016-12-15T12:12:13.594Z,2.26
2016-12-15T12:13:13.578Z,2.22
2016-12-15T12:14:13.565Z,2.16
2016-12-15T12:15:13.547Z,2.18
2016-12-15T12:16:13.534Z,2.18
2016-12-15T12:17:13.525Z,2.16
2016-12-15T12:18:13.503Z,2.2
2016-12-15T12:19:13.487Z,2.27
2016-12-15T12:20:13.480Z,2.3
2016-12-15T12:21:13.458Z,2.27
2016-12-15T12:22:13.445Z,2.29
2016-12-15T12:23:13.427Z,2.3
2016-12-15T12:24:13.415Z,2.34
2016-12-15T12:25:13.395Z,2.3
2016-12-15T12:26:13.380Z,2.24
2016-12-15T12:27:13.370Z,2.34
2016-12-15T12:28:13.353Z,2.31
2016-12-15T12:29:13.344Z,2.38
2016-12-15T12:30:13.321Z,2.44
2016-12-15T12:31:13.303Z,2.38
2016-12-15T12:32:13.288Z,2.31
2016-12-15T12:33:13.599Z,2.26
2016-12-15T12:34:13.259Z,2.16
2016-12-15T12:35:13.249Z,2.22
2016-12-15T12:36:13.228Z,2.11
2016-12-15T12:37:13.214Z,2.16
2016-12-15T12:38:13.199Z,2.11
2016-12-15T12:39:13.183Z,2.12
2016-12-15T12:40:13.170Z,2.09
2016-12-15T12:41:13.151Z,2.04
2016-12-15T12:42:13.142Z,2.09
2016-12-15T12:43:13.123Z,1.98
2016-12-15T12:44:13.107Z,2.01
2016-12-15T12:45:13.142Z,1.94
2016-12-15T12:46:13.086Z,2.02
2016-12-15T12:47:13.064Z,1.94
2016-12-15T12:48:13.048Z,2.02
2016-12-15T12:49:13.033Z,2.02
2016-12-15T12:50:13.016Z,1.93
2016-12-15T12:51:12.998Z,2.04
2016-12-15T12:52:12.985Z,1.92
2016-12-15T12:53:12.971Z,2.02
2016-12-15T12:54:12.952Z,1.94
2016-12-15T12:55:12.942Z,1.92
2016-12-15T12:56:12.920Z,1.92
2016-12-15T12:57:12.909Z,1.93
2016-12-15T12:58:12.894Z,1.79
2016-12-15T12:59:12.880Z,1.82
2016-12-15T13:00:12.867Z,1.92
2016-12-15T13:01:12.855Z,1.9
2016-12-15T13:02:12.840Z,1.84
2016-12-15T13:03:12.816Z,1.87
2016-12-15T13:04:12.798Z,1.86
2016-12-15T13:05:12.797Z,1.83
2016-12-15T13:06:12.804Z,1.72
2016-12-15T13:07:13.080Z,1.72
2016-12-15T13:08:12.739Z,1.72
2016-12-15T13:09:12.722Z,1.74
2016-12-15T13:10:12.708Z,1.74
2016-12-15T13:11:12.694Z,1.71